Terminal Aerodrome Forecast
Issued by NWS

Current Version | Previous Version | Text Only | Print | Product List | Glossary On
Versions: 1 2 3 4 5 6 7 8 9 10 11 12 13 14 15 16 17 18 19 20 21 22
000
FTUS43 KGLD 270539
TAFMCK
TAF
KMCK 270539Z 2706/2806 25006KT P6SM SKC
      TEMPO 2706/2708 4SM BR
     FM270800 VRB03KT 3SM BR BKN070
     FM270900 VRB03KT 1 1/2SM BR BKN005
     FM271200 VRB03KT 1/4SM FG OVC002
     FM271600 VRB03KT 4SM BR OVC002
     FM271700 VRB04KT P6SM BKN009
     FM271800 VRB05KT P6SM SCT009=

USA.gov is the U.S. government's official web portal to all federal, state and local government web resources and services.